Terminal Aerodrome Forecast
Issued by NWS Shreveport, LA

Home | Current Version | Previous Version | Text Only | Print | Product List | Glossary On
Versions: 1 2 3 4 5 6 7 8 9 10 11 12 13 14 15 16 17 18 19 20 21 22 23 24 25 26 27 28
986
FTUS44 KSHV 161945 AAA
TAFMLU
TAF AMD
KMLU 161945Z 1620/1718 16004KT P6SM BKN029 OVC040
     FM162300 17004KT P6SM OVC020
     FM170000 15005KT P6SM OVC015
     FM171300 19007KT 4SM BR OVC010=

USA.gov is the U.S. government's official web portal to all federal, state and local government web resources and services.